Time;durP1;ratioP1;P1;durP2;ratioP2;P2;SDS_P1;SDS_P2;PMS_P1;PMS_P2;Temp;Humidity;BMP_temperature;BMP_pressure;BME280_temperature;BME280_humidity;BME280_pressure;Samples;Min_cycle;Max_cycle;Signal;HPM_P1;HPM_P2
2022/09/27 00:00:35;;;;;;;15.18;2.85;;;;;;;-145.01;100.00;64805.59;5048748;28;20025;-54
2022/09/27 00:03:01;;;;;;;23.85;3.55;;;;;;;-145.01;100.00;64805.59;5053055;28;20515;-54
2022/09/27 00:05:26;;;;;;;11.35;3.17;;;;;;;-145.01;100.00;64805.59;5049027;28;20045;-54
2022/09/27 00:07:52;;;;;;;12.98;3.67;;;;;;;-145.01;100.00;64805.59;5049126;28;20051;-55
2022/09/27 00:10:18;;;;;;;11.73;3.55;;;;;;;-145.01;100.00;64805.59;5048983;28;20387;-54
2022/09/27 00:12:44;;;;;;;14.65;3.90;;;;;;;-145.01;100.00;64805.59;5048661;28;20037;-55
2022/09/27 00:15:09;;;;;;;7.80;3.47;;;;;;;-145.01;100.00;64805.59;5056328;28;20090;-55
2022/09/27 00:17:35;;;;;;;17.85;3.58;;;;;;;-145.01;100.00;64805.59;5055763;28;20104;-53
2022/09/27 00:20:01;;;;;;;10.88;3.90;;;;;;;-145.01;100.00;64805.59;5053902;28;20029;-55
2022/09/27 00:22:27;;;;;;;14.05;3.90;;;;;;;-145.01;100.00;64805.59;5049041;28;20522;-54
2022/09/27 00:24:53;;;;;;;15.40;4.43;;;;;;;-145.01;100.00;64805.59;5054432;28;20067;-54
2022/09/27 00:27:18;;;;;;;19.85;3.90;;;;;;;-145.01;100.00;64805.59;5048214;28;20082;-52
2022/09/27 00:29:44;;;;;;;14.23;3.45;;;;;;;-145.01;100.00;64805.59;5053421;28;20128;-54
2022/09/27 00:32:10;;;;;;;9.07;3.75;;;;;;;-145.01;100.00;64805.59;5047581;28;20057;-52
2022/09/27 00:34:36;;;;;;;10.73;3.40;;;;;;;-145.01;100.00;64805.59;5058517;28;20303;-55
2022/09/27 00:37:01;;;;;;;12.80;3.20;;;;;;;-145.01;100.00;64805.59;5052258;28;20051;-54
2022/09/27 00:39:27;;;;;;;15.20;3.85;;;;;;;-145.01;100.00;64805.59;5055907;28;20041;-54
2022/09/27 00:41:52;;;;;;;11.55;3.25;;;;;;;-145.01;100.00;64805.59;5080143;28;20025;-56
2022/09/27 00:44:24;;;;;;;9.25;2.75;;;;;;;-145.01;100.00;64805.59;5051222;28;20025;-54
2022/09/27 00:47:07;;;;;;;9.60;2.80;;;;;;;-145.01;100.00;64805.59;5047653;28;20032;-54
2022/09/27 00:49:56;;;;;;;8.15;2.92;;;;;;;-145.01;100.00;64805.59;5090865;28;20035;-54
2022/09/27 00:52:35;;;;;;;9.23;2.73;;;;;;;-145.01;100.00;64805.59;5048923;28;20130;-54
2022/09/27 00:55:08;;;;;;;7.72;2.60;;;;;;;-145.01;100.00;64805.59;5051277;28;20088;-55
2022/09/27 00:57:33;;;;;;;8.75;2.75;;;;;;;-145.01;100.00;64805.59;5051875;28;20131;-54
2022/09/27 01:00:08;;;;;;;12.15;3.33;;;;;;;-145.01;100.00;64805.59;5083078;28;20048;-55
2022/09/27 01:02:35;;;;;;;8.90;3.20;;;;;;;-145.01;100.00;64805.59;5051324;28;20033;-55
2022/09/27 01:05:00;;;;;;;6.80;2.88;;;;;;;-145.01;100.00;64805.59;5037423;28;20029;-54
2022/09/27 01:07:26;;;;;;;8.05;3.00;;;;;;;-145.01;100.00;64805.59;5055717;28;20348;-55
2022/09/27 01:09:51;;;;;;;13.27;3.67;;;;;;;-145.01;100.00;64805.59;5051215;28;20506;-54
2022/09/27 01:12:34;;;;;;;15.65;3.80;;;;;;;-145.01;100.00;64805.59;5051168;28;20029;-55
2022/09/27 01:15:48;;;;;;;11.13;3.70;;;;;;;-145.01;100.00;64805.59;5089201;28;20036;-54
2022/09/27 01:18:20;;;;;;;7.78;3.40;;;;;;;-145.01;100.00;64805.59;5032143;28;20082;-54
2022/09/27 01:21:04;;;;;;;7.35;2.80;;;;;;;-145.01;100.00;64805.59;5054860;28;20116;-55
2022/09/27 01:23:58;;;;;;;9.35;2.70;;;;;;;-145.01;100.00;64805.59;5053689;28;20021;-53
2022/09/27 01:26:42;;;;;;;5.63;2.20;;;;;;;-145.01;100.00;64805.59;5054953;28;20033;-55
2022/09/27 01:29:20;;;;;;;4.47;2.05;;;;;;;-145.01;100.00;64805.59;5051294;28;20485;-55
2022/09/27 01:32:25;;;;;;;2.55;1.60;;;;;;;-145.01;100.00;64805.59;5033332;28;20383;-54
2022/09/27 01:35:01;;;;;;;2.65;1.52;;;;;;;-145.01;100.00;64805.59;5054076;28;20040;-54
2022/09/27 01:37:36;;;;;;;2.53;1.60;;;;;;;-145.01;100.00;64805.59;5054965;28;20029;-54
2022/09/27 01:40:09;;;;;;;3.08;1.70;;;;;;;-145.01;100.00;64805.59;5056855;28;20490;-53
2022/09/27 01:42:46;;;;;;;4.55;1.55;;;;;;;-145.01;100.00;64805.59;5052840;28;20079;-54
2022/09/27 01:45:20;;;;;;;2.85;1.65;;;;;;;-145.01;100.00;64805.59;5048785;28;20056;-56
2022/09/27 01:48:14;;;;;;;3.03;1.73;;;;;;;-145.01;100.00;64805.59;5060734;28;20403;-56
2022/09/27 01:50:42;;;;;;;2.30;1.75;;;;;;;-145.01;100.00;64805.59;5031244;28;20509;-54
2022/09/27 01:53:24;;;;;;;1.80;1.60;;;;;;;-145.01;100.00;64805.59;5042490;28;20037;-53
2022/09/27 01:55:50;;;;;;;4.72;1.42;;;;;;;-145.01;100.00;64805.59;5032504;28;20020;-54
2022/09/27 01:58:36;;;;;;;2.28;1.60;;;;;;;-145.01;100.00;64805.59;5088172;28;20028;-53
2022/09/27 02:01:01;;;;;;;1.70;1.40;;;;;;;-145.01;100.00;64805.59;5088569;28;20024;-53
2022/09/27 02:03:32;;;;;;;2.03;1.40;;;;;;;-145.01;100.00;64805.59;5048451;28;20036;-54
2022/09/27 02:06:12;;;;;;;2.55;1.30;;;;;;;-145.01;100.00;64805.59;5052483;28;20531;-53
2022/09/27 02:08:48;;;;;;;2.40;1.40;;;;;;;-145.01;100.00;64805.59;5049645;28;20051;-55
2022/09/27 02:11:13;;;;;;;2.85;1.30;;;;;;;-145.01;100.00;64805.59;5049124;28;20078;-55
2022/09/27 02:13:45;;;;;;;2.30;0.98;;;;;;;-145.01;100.00;64805.59;5070271;28;20021;-56
2022/09/27 02:16:34;;;;;;;4.20;1.50;;;;;;;-145.01;100.00;64805.59;5017466;28;20037;-55
2022/09/27 02:19:33;;;;;;;1.75;1.20;;;;;;;-145.01;100.00;64805.59;5045443;28;20028;-56
2022/09/27 02:22:23;;;;;;;1.27;1.10;;;;;;;-145.01;100.00;64805.59;5050279;28;20104;-55
2022/09/27 02:25:21;;;;;;;5.45;1.25;;;;;;;-145.01;100.00;64805.59;5050416;28;20505;-57
2022/09/27 02:28:11;;;;;;;1.10;1.05;;;;;;;-145.01;100.00;64805.59;5040350;28;20109;-56
2022/09/27 02:30:37;;;;;;;2.92;1.55;;;;;;;-145.01;100.00;64805.59;5048748;28;20643;-56
2022/09/27 02:33:02;;;;;;;4.00;1.20;;;;;;;-145.01;100.00;64805.59;5055811;28;20035;-56
2022/09/27 02:35:32;;;;;;;2.13;0.95;;;;;;;-145.01;100.00;64805.59;5064806;28;20028;-56
2022/09/27 02:37:57;;;;;;;1.10;0.98;;;;;;;-145.01;100.00;64805.59;5059558;28;20020;-55
2022/09/27 02:40:23;;;;;;;3.25;1.02;;;;;;;-145.01;100.00;64805.59;5052428;28;20098;-54
2022/09/27 02:42:49;;;;;;;1.45;1.20;;;;;;;-145.01;100.00;64805.59;5035899;28;20049;-56
2022/09/27 02:45:15;;;;;;;2.72;1.33;;;;;;;-145.01;100.00;64805.59;5049110;28;20055;-55
2022/09/27 02:47:44;;;;;;;1.40;1.30;;;;;;;-145.01;100.00;64805.59;5055408;28;20463;-55
2022/09/27 02:50:24;;;;;;;2.97;1.60;;;;;;;-145.01;100.00;64805.59;5054152;28;20070;-55
2022/09/27 02:53:35;;;;;;;2.28;1.23;;;;;;;-145.01;100.00;64805.59;5047924;28;20025;-55
2022/09/27 02:56:09;;;;;;;2.65;1.08;;;;;;;-145.01;100.00;64805.59;5034352;28;20582;-56
2022/09/27 02:59:17;;;;;;;2.00;1.33;;;;;;;-145.01;100.00;64805.59;5048024;28;20060;-55
2022/09/27 03:01:46;;;;;;;3.30;1.40;;;;;;;-145.01;100.00;64805.59;5072577;28;20048;-55
2022/09/27 03:04:21;;;;;;;4.00;1.20;;;;;;;-145.01;100.00;64805.59;5049425;28;20024;-56
2022/09/27 03:06:47;;;;;;;4.60;1.60;;;;;;;-145.01;100.00;64805.59;5032621;28;20029;-55
2022/09/27 03:09:20;;;;;;;2.40;1.40;;;;;;;-145.01;100.00;64805.59;5064922;28;20082;-55
2022/09/27 03:11:45;;;;;;;4.15;1.30;;;;;;;-145.01;100.00;64805.59;5051694;28;20112;-56
2022/09/27 03:14:11;;;;;;;1.60;1.08;;;;;;;-145.01;100.00;64805.59;5055409;28;20579;-56
2022/09/27 03:16:36;;;;;;;2.47;1.45;;;;;;;-145.01;100.00;64805.59;5056928;28;20036;-56
2022/09/27 03:19:01;;;;;;;2.80;1.13;;;;;;;-145.01;100.00;64805.59;5053788;28;20451;-56
2022/09/27 03:21:28;;;;;;;3.63;1.30;;;;;;;-145.01;100.00;64805.59;5053917;28;20021;-56
2022/09/27 03:23:53;;;;;;;3.10;1.20;;;;;;;-145.01;100.00;64805.59;5053623;28;20025;-55
2022/09/27 03:26:18;;;;;;;3.75;1.05;;;;;;;-145.01;100.00;64805.59;5049078;28;20090;-55
2022/09/27 03:28:44;;;;;;;2.92;1.23;;;;;;;-145.01;100.00;64805.59;5052404;28;20486;-56
2022/09/27 03:31:09;;;;;;;2.58;1.42;;;;;;;-145.01;100.00;64805.59;5050381;28;20040;-55
2022/09/27 03:33:35;;;;;;;1.92;1.23;;;;;;;-145.01;100.00;64805.59;5057218;28;20033;-54
2022/09/27 03:36:00;;;;;;;2.53;1.20;;;;;;;-145.01;100.00;64805.59;5048160;28;20033;-55
2022/09/27 03:38:26;;;;;;;3.67;1.40;;;;;;;-145.01;100.00;64805.59;5057073;28;20067;-56
2022/09/27 03:40:51;;;;;;;6.32;1.25;;;;;;;-145.01;100.00;64805.59;5049146;28;20033;-56
2022/09/27 03:43:17;;;;;;;4.32;1.50;;;;;;;-145.01;100.00;64805.59;5058835;28;20028;-56
2022/09/27 03:45:44;;;;;;;2.58;1.50;;;;;;;-145.01;100.00;64805.59;5050391;28;20028;-54
2022/09/27 03:48:09;;;;;;;4.15;1.67;;;;;;;-145.01;100.00;64805.59;5058045;28;20017;-55
2022/09/27 03:50:35;;;;;;;3.38;1.63;;;;;;;-145.01;100.00;64805.59;5052052;28;20123;-55
2022/09/27 03:53:00;;;;;;;1.92;1.48;;;;;;;-145.01;100.00;64805.59;5062384;28;20025;-55
2022/09/27 03:55:26;;;;;;;2.83;2.05;;;;;;;-145.01;100.00;64805.59;5048589;28;20036;-54
2022/09/27 03:57:51;;;;;;;7.82;1.80;;;;;;;-145.01;100.00;64805.59;5053603;28;20040;-54
2022/09/27 04:00:17;;;;;;;5.43;1.80;;;;;;;-145.01;100.00;64805.59;5048714;28;20021;-55
2022/09/27 04:02:42;;;;;;;4.75;1.80;;;;;;;-145.01;100.00;64805.59;5054195;28;20029;-54
2022/09/27 04:05:08;;;;;;;3.15;1.73;;;;;;;-145.01;100.00;64805.59;5049686;28;20387;-53
2022/09/27 04:07:33;;;;;;;4.20;1.83;;;;;;;-145.01;100.00;64805.59;5049132;28;20029;-54
2022/09/27 04:09:59;;;;;;;3.20;1.80;;;;;;;-145.01;100.00;64805.59;5048083;28;20033;-54
2022/09/27 04:12:24;;;;;;;5.20;1.83;;;;;;;-145.01;100.00;64805.59;5054350;28;20407;-54
2022/09/27 04:14:50;;;;;;;5.78;1.85;;;;;;;-145.01;100.00;64805.59;5048411;28;20414;-54
2022/09/27 04:17:15;;;;;;;2.83;1.60;;;;;;;-145.01;100.00;64805.59;5055007;28;20507;-54
2022/09/27 04:19:40;;;;;;;5.25;1.80;;;;;;;-145.01;100.00;64805.59;5059466;28;20032;-54
2022/09/27 04:22:06;;;;;;;2.47;1.80;;;;;;;-145.01;100.00;64805.59;5055216;28;20466;-53
2022/09/27 04:24:32;;;;;;;2.38;1.70;;;;;;;-145.01;100.00;64805.59;5052582;28;20678;-55
2022/09/27 04:26:58;;;;;;;3.25;1.60;;;;;;;-145.01;100.00;64805.59;5052075;28;20028;-54
2022/09/27 04:29:24;;;;;;;2.00;1.30;;;;;;;-145.01;100.00;64805.59;5057129;28;20045;-54
2022/09/27 04:31:50;;;;;;;1.65;1.40;;;;;;;-145.01;100.00;64805.59;5051757;28;20494;-55
2022/09/27 04:34:16;;;;;;;1.90;1.40;;;;;;;-145.01;100.00;64805.59;5058103;28;20021;-54
2022/09/27 04:36:41;;;;;;;2.45;1.45;;;;;;;-145.01;100.00;64805.59;5057084;28;20029;-54
2022/09/27 04:39:07;;;;;;;2.28;1.35;;;;;;;-145.01;100.00;64805.59;5056874;28;20028;-52
2022/09/27 04:41:34;;;;;;;6.13;1.63;;;;;;;-145.01;100.00;64805.59;5090349;28;20609;-55
2022/09/27 04:44:00;;;;;;;2.35;1.13;;;;;;;-145.01;100.00;64805.59;5052359;28;20025;-54
2022/09/27 04:46:30;;;;;;;2.75;1.23;;;;;;;-145.01;100.00;64805.59;5058801;28;20510;-55
2022/09/27 04:48:59;;;;;;;5.47;1.20;;;;;;;-145.01;100.00;64805.59;5055702;28;20459;-53
2022/09/27 04:51:24;;;;;;;3.80;1.10;;;;;;;-145.01;100.00;64805.59;5061040;28;20033;-54
2022/09/27 04:53:49;;;;;;;1.10;1.08;;;;;;;-145.01;100.00;64805.59;5062209;28;20024;-57
2022/09/27 04:56:15;;;;;;;2.88;1.50;;;;;;;-145.01;100.00;64805.59;5068929;28;20029;-54
2022/09/27 04:58:40;;;;;;;0.93;0.82;;;;;;;-145.01;100.00;64805.59;5059032;28;20472;-54
2022/09/27 05:01:08;;;;;;;1.15;1.05;;;;;;;-145.01;100.00;64805.59;5054696;28;20028;-57
2022/09/27 05:03:33;;;;;;;3.13;1.48;;;;;;;-145.01;100.00;64805.59;5057303;28;20902;-56
2022/09/27 05:05:59;;;;;;;3.20;1.00;;;;;;;-145.01;100.00;64805.59;5055034;28;20041;-54
2022/09/27 05:08:25;;;;;;;0.75;0.75;;;;;;;-145.01;100.00;64805.59;5063158;28;20560;-56
2022/09/27 05:10:50;;;;;;;1.77;0.90;;;;;;;-145.01;100.00;64805.59;5058105;28;20036;-56
2022/09/27 05:13:17;;;;;;;1.27;1.17;;;;;;;-145.01;100.00;64805.59;5057788;28;20536;-56
2022/09/27 05:15:42;;;;;;;1.63;1.00;;;;;;;-145.01;100.00;64805.59;5054443;28;20033;-53
2022/09/27 05:18:08;;;;;;;3.13;1.30;;;;;;;-145.01;100.00;64805.59;5059509;28;20070;-57
2022/09/27 05:20:38;;;;;;;1.20;1.10;;;;;;;-145.01;100.00;64805.59;5054679;28;20060;-55
2022/09/27 05:23:04;;;;;;;4.13;1.38;;;;;;;-145.01;100.00;64805.59;5060486;28;20686;-54
2022/09/27 05:25:30;;;;;;;1.48;1.10;;;;;;;-145.01;100.00;64805.59;5051926;28;20041;-54
2022/09/27 05:27:56;;;;;;;6.25;1.30;;;;;;;-145.01;100.00;64805.59;5056747;28;20025;-54
2022/09/27 05:30:22;;;;;;;2.42;1.20;;;;;;;-145.01;100.00;64805.59;5049555;28;20162;-54
2022/09/27 05:32:51;;;;;;;2.28;1.38;;;;;;;-145.01;100.00;64805.59;5051621;28;20364;-54
2022/09/27 05:35:18;;;;;;;5.82;1.20;;;;;;;-145.01;100.00;64805.59;5070788;28;20151;-55
2022/09/27 05:37:49;;;;;;;1.60;1.00;;;;;;;-145.01;100.00;64805.59;5058990;28;20552;-54
2022/09/27 05:40:15;;;;;;;6.05;2.08;;;;;;;-145.01;100.00;64805.59;5091522;28;20025;-54
2022/09/27 05:42:40;;;;;;;3.17;1.30;;;;;;;-145.01;100.00;64805.59;5051637;28;20372;-54
2022/09/27 05:45:06;;;;;;;4.47;1.40;;;;;;;-145.01;100.00;64805.59;5055949;28;20029;-57
2022/09/27 05:47:32;;;;;;;3.67;1.58;;;;;;;-145.01;100.00;64805.59;5050192;28;20039;-56
2022/09/27 05:49:58;;;;;;;8.23;1.70;;;;;;;-145.01;100.00;64805.59;5069674;28;20012;-54
2022/09/27 05:52:23;;;;;;;5.82;1.85;;;;;;;-145.01;100.00;64805.59;5059984;28;20016;-57
2022/09/27 05:54:49;;;;;;;3.47;1.50;;;;;;;-145.01;100.00;64805.59;5067500;28;20042;-54
2022/09/27 05:57:14;;;;;;;2.55;1.40;;;;;;;-145.01;100.00;64805.59;5054997;28;20025;-54
2022/09/27 05:59:43;;;;;;;3.05;1.70;;;;;;;-145.01;100.00;64805.59;5056116;28;20116;-57
2022/09/27 06:02:11;;;;;;;4.28;1.70;;;;;;;-145.01;100.00;64805.59;5054373;28;20067;-55
2022/09/27 06:04:37;;;;;;;3.15;1.60;;;;;;;-145.01;100.00;64805.59;5058728;28;20074;-55
2022/09/27 06:07:02;;;;;;;1.50;1.40;;;;;;;-145.01;100.00;64805.59;5062401;28;20032;-54
2022/09/27 06:09:28;;;;;;;4.35;1.73;;;;;;;-145.01;100.00;64805.59;5055565;28;20029;-54
2022/09/27 06:11:53;;;;;;;4.38;1.50;;;;;;;-145.01;100.00;64805.59;5051048;28;20028;-56
2022/09/27 06:14:19;;;;;;;1.52;1.30;;;;;;;-145.01;100.00;64805.59;5055267;28;20040;-55
2022/09/27 06:16:45;;;;;;;1.65;1.33;;;;;;;-145.01;100.00;64805.59;5053978;28;20028;-55
2022/09/27 06:19:10;;;;;;;3.85;1.70;;;;;;;-145.01;100.00;64805.59;5055170;28;20028;-55
2022/09/27 06:21:36;;;;;;;2.38;1.40;;;;;;;-145.01;100.00;64805.59;5053380;28;20102;-56
2022/09/27 06:24:02;;;;;;;3.92;1.52;;;;;;;-145.01;100.00;64805.59;5050539;28;20044;-55
2022/09/27 06:26:27;;;;;;;2.05;1.50;;;;;;;-145.01;100.00;64805.59;5050109;28;20033;-55
2022/09/27 06:28:53;;;;;;;3.65;1.58;;;;;;;-145.01;100.00;64805.59;5050302;28;20456;-56
2022/09/27 06:31:19;;;;;;;3.35;1.40;;;;;;;-145.01;100.00;64805.59;5057132;28;20111;-55
2022/09/27 06:33:44;;;;;;;2.97;1.10;;;;;;;-145.01;100.00;64805.59;5050143;28;20064;-54
2022/09/27 06:36:10;;;;;;;3.05;1.50;;;;;;;-145.01;100.00;64805.59;5056632;28;20043;-55
2022/09/27 06:38:36;;;;;;;4.15;1.73;;;;;;;-145.01;100.00;64805.59;5056581;28;20029;-55
2022/09/27 06:41:02;;;;;;;2.17;1.60;;;;;;;-145.01;100.00;64805.59;5049725;28;20018;-55
2022/09/27 06:43:32;;;;;;;4.53;1.50;;;;;;;-145.01;100.00;64805.59;5050173;28;20075;-56
2022/09/27 06:46:04;;;;;;;2.50;1.40;;;;;;;-145.01;100.00;64805.59;5053161;28;20627;-55
2022/09/27 06:48:30;;;;;;;5.15;1.60;;;;;;;-145.01;100.00;64805.59;5055293;28;20115;-54
2022/09/27 06:50:56;;;;;;;4.95;1.50;;;;;;;-145.01;100.00;64805.59;5049863;28;20511;-54
2022/09/27 06:53:22;;;;;;;2.00;1.45;;;;;;;-145.01;100.00;64805.59;5054354;28;20032;-55
2022/09/27 06:55:47;;;;;;;3.60;1.77;;;;;;;-145.01;100.00;64805.59;5061212;28;20570;-56
2022/09/27 07:00:57;;;;;;;2.42;1.52;;;;;;;-145.01;100.00;64805.59;5052313;28;20039;-55
2022/09/27 07:03:31;;;;;;;3.42;1.77;;;;;;;-145.01;100.00;64805.59;5052151;28;20253;-56
2022/09/27 07:06:03;;;;;;;4.55;1.60;;;;;;;-145.01;100.00;64805.59;5051691;28;20049;-55
2022/09/27 07:08:29;;;;;;;5.15;1.65;;;;;;;-145.01;100.00;64805.59;5049972;28;20075;-56
2022/09/27 07:10:55;;;;;;;2.05;1.45;;;;;;;-145.01;100.00;64805.59;5053348;28;20519;-55
2022/09/27 07:13:21;;;;;;;4.65;1.60;;;;;;;-145.01;100.00;64805.59;5056604;28;20058;-55
2022/09/27 07:15:46;;;;;;;2.40;1.50;;;;;;;-145.01;100.00;64805.59;5050573;28;20025;-55
2022/09/27 07:18:12;;;;;;;2.17;1.45;;;;;;;-145.01;100.00;64805.59;5060610;28;20024;-57
2022/09/27 07:20:38;;;;;;;2.35;1.70;;;;;;;-145.01;100.00;64805.59;5037222;28;20019;-55
2022/09/27 07:23:04;;;;;;;6.18;1.50;;;;;;;-145.01;100.00;64805.59;5049336;28;20031;-55
2022/09/27 07:25:30;;;;;;;2.63;1.30;;;;;;;-145.01;100.00;64805.59;5049474;28;20079;-55
2022/09/27 07:28:03;;;;;;;2.83;1.27;;;;;;;-145.01;100.00;64805.59;5049390;28;20020;-57
2022/09/27 07:30:28;;;;;;;5.15;1.50;;;;;;;-145.01;100.00;64805.59;5047483;28;20024;-57
2022/09/27 07:32:58;;;;;;;4.60;1.45;;;;;;;-145.01;100.00;64805.59;5051344;28;20462;-54
2022/09/27 07:35:23;;;;;;;2.90;1.58;;;;;;;-145.01;100.00;64805.59;5056102;28;20021;-54
2022/09/27 07:37:49;;;;;;;2.20;1.60;;;;;;;-145.01;100.00;64805.59;5055844;28;20074;-54
2022/09/27 07:40:14;;;;;;;3.13;1.55;;;;;;;-145.01;100.00;64805.59;5053260;28;20040;-55
2022/09/27 07:42:40;;;;;;;3.90;1.50;;;;;;;-145.01;100.00;64805.59;5054407;28;20029;-55
2022/09/27 07:45:06;;;;;;;4.75;1.60;;;;;;;-145.01;100.00;64805.59;5055778;28;20032;-54
2022/09/27 07:47:32;;;;;;;7.20;1.83;;;;;;;-145.01;100.00;64805.59;5048410;28;20025;-54
2022/09/27 07:49:57;;;;;;;3.30;1.52;;;;;;;-145.01;100.00;64805.59;5058319;28;20025;-54
2022/09/27 07:52:22;;;;;;;2.55;1.45;;;;;;;-145.01;100.00;64805.59;5055936;28;20386;-55
2022/09/27 07:54:48;;;;;;;4.05;1.40;;;;;;;-145.01;100.00;64805.59;5054496;28;20534;-54
2022/09/27 07:57:14;;;;;;;2.90;1.60;;;;;;;-145.01;100.00;64805.59;5052872;28;20396;-55
2022/09/27 07:59:39;;;;;;;3.08;1.40;;;;;;;-145.01;100.00;64805.59;5052757;28;20450;-56
2022/09/27 08:02:05;;;;;;;3.20;1.40;;;;;;;-145.01;100.00;64805.59;5053681;28;20036;-54
2022/09/27 08:04:31;;;;;;;2.90;1.50;;;;;;;-145.01;100.00;64805.59;5061885;28;20084;-54
2022/09/27 08:06:56;;;;;;;5.90;1.90;;;;;;;-145.01;100.00;64805.59;5055245;28;20452;-54
2022/09/27 08:09:21;;;;;;;1.83;1.30;;;;;;;-145.01;100.00;64805.59;5057029;28;20029;-55
2022/09/27 08:11:47;;;;;;;1.55;1.20;;;;;;;-145.01;100.00;64805.59;5052863;28;20036;-55
2022/09/27 08:14:13;;;;;;;3.88;1.35;;;;;;;-145.01;100.00;64805.59;5053364;28;20056;-55
2022/09/27 08:16:40;;;;;;;2.80;1.40;;;;;;;-145.01;100.00;64805.59;5058928;28;20455;-54
2022/09/27 08:19:05;;;;;;;3.67;1.50;;;;;;;-145.01;100.00;64805.59;5088184;28;20040;-55
2022/09/27 08:21:31;;;;;;;4.10;1.50;;;;;;;-145.01;100.00;64805.59;5057556;28;20021;-55
2022/09/27 08:23:57;;;;;;;4.13;1.20;;;;;;;-145.01;100.00;64805.59;5051546;28;20572;-55
2022/09/27 08:26:23;;;;;;;4.13;1.60;;;;;;;-145.01;100.00;64805.59;5052468;28;20189;-55
2022/09/27 08:28:48;;;;;;;1.50;1.30;;;;;;;-145.01;100.00;64805.59;5059160;28;20102;-55
2022/09/27 08:31:14;;;;;;;3.10;1.38;;;;;;;-145.01;100.00;64805.59;5053979;28;20096;-55
2022/09/27 08:33:39;;;;;;;1.38;1.20;;;;;;;-145.01;100.00;64805.59;5055588;28;20032;-56
2022/09/27 08:36:11;;;;;;;2.38;1.30;;;;;;;-145.01;100.00;64805.59;5059316;28;20036;-54
2022/09/27 08:38:36;;;;;;;5.80;1.52;;;;;;;-145.01;100.00;64805.59;5055977;28;20427;-54
2022/09/27 08:41:22;;;;;;;3.05;1.58;;;;;;;-145.01;100.00;64805.59;5056619;28;20120;-55
2022/09/27 08:44:06;;;;;;;2.72;1.33;;;;;;;-145.01;100.00;64805.59;5052188;28;20119;-54
2022/09/27 08:46:34;;;;;;;3.58;1.30;;;;;;;-145.01;100.00;64805.59;5056100;28;20037;-55
2022/09/27 08:49:23;;;;;;;2.80;0.93;;;;;;;-145.01;100.00;64805.59;5055554;28;20056;-54
2022/09/27 08:51:49;;;;;;;1.92;1.20;;;;;;;-145.01;100.00;64805.59;5055375;28;20015;-55
2022/09/27 08:54:24;;;;;;;6.65;1.60;;;;;;;-145.01;100.00;64805.59;5056193;28;20020;-55
2022/09/27 08:56:50;;;;;;;2.67;1.30;;;;;;;-145.01;100.00;64805.59;5057628;28;20023;-55
2022/09/27 08:59:20;;;;;;;1.88;1.20;;;;;;;-145.01;100.00;64805.59;5052602;28;20033;-54
2022/09/27 09:01:49;;;;;;;2.88;1.17;;;;;;;-145.01;100.00;64805.59;5034266;28;20025;-54
2022/09/27 09:04:20;;;;;;;1.63;1.10;;;;;;;-145.01;100.00;64805.59;5051828;28;20050;-54
2022/09/27 09:07:23;;;;;;;1.60;1.25;;;;;;;-145.01;100.00;64805.59;5053635;28;20083;-55
2022/09/27 09:10:11;;;;;;;3.90;1.40;;;;;;;-145.01;100.00;64805.59;5057312;28;20024;-56
2022/09/27 09:12:48;;;;;;;1.63;1.13;;;;;;;-145.01;100.00;64805.59;5056967;28;20114;-55
2022/09/27 09:15:17;;;;;;;3.75;1.20;;;;;;;-145.01;100.00;64805.59;5053020;28;20495;-56
2022/09/27 09:18:01;;;;;;;2.45;1.33;;;;;;;-145.01;100.00;64805.59;5059706;28;20713;-55
2022/09/27 09:20:44;;;;;;;2.10;1.23;;;;;;;-145.01;100.00;64805.59;5051894;28;20033;-56
2022/09/27 09:23:17;;;;;;;2.10;1.20;;;;;;;-145.01;100.00;64805.59;5051464;28;20036;-57
2022/09/27 09:26:07;;;;;;;1.55;1.23;;;;;;;-145.01;100.00;64805.59;5063053;28;20523;-57
2022/09/27 09:29:00;;;;;;;2.22;1.30;;;;;;;-145.01;100.00;64805.59;5058318;28;20037;-55
2022/09/27 09:31:47;;;;;;;2.45;1.30;;;;;;;-145.01;100.00;64805.59;5053928;28;20033;-57
2022/09/27 09:34:14;;;;;;;2.05;1.33;;;;;;;-145.01;100.00;64805.59;5058801;28;20490;-55
2022/09/27 09:36:49;;;;;;;1.88;1.10;;;;;;;-145.01;100.00;64805.59;5051147;28;20029;-55
2022/09/27 09:39:20;;;;;;;1.35;1.23;;;;;;;-145.01;100.00;64805.59;5051227;28;20021;-56
2022/09/27 09:42:06;;;;;;;3.28;1.70;;;;;;;-145.01;100.00;64805.59;5036706;28;20033;-56
2022/09/27 09:44:58;;;;;;;2.95;1.15;;;;;;;-145.01;100.00;64805.59;5047994;28;20047;-55
2022/09/27 09:47:39;;;;;;;2.80;1.58;;;;;;;-145.01;100.00;64805.59;5057866;28;20041;-54
2022/09/27 09:50:20;;;;;;;2.70;1.23;;;;;;;-145.01;100.00;64805.59;5033382;28;20533;-55
2022/09/27 09:53:05;;;;;;;1.45;1.20;;;;;;;-145.01;100.00;64805.59;5035399;28;20481;-55
2022/09/27 09:55:33;;;;;;;1.15;1.08;;;;;;;-145.01;100.00;64805.59;5067840;28;20028;-54
2022/09/27 09:58:02;;;;;;;2.28;1.30;;;;;;;-145.01;100.00;64805.59;5056988;28;20189;-55
2022/09/27 10:00:27;;;;;;;2.55;1.27;;;;;;;-145.01;100.00;64805.59;5050666;28;20064;-56
2022/09/27 10:02:54;;;;;;;1.55;1.40;;;;;;;-145.01;100.00;64805.59;5051042;28;20087;-54
2022/09/27 10:05:21;;;;;;;4.68;1.23;;;;;;;-145.01;100.00;64805.59;5054251;28;20043;-55
2022/09/27 10:07:49;;;;;;;1.70;1.30;;;;;;;-145.01;100.00;64805.59;5056698;28;20104;-56
2022/09/27 10:10:16;;;;;;;2.10;1.20;;;;;;;-145.01;100.00;64805.59;5049368;28;20040;-56
2022/09/27 10:12:42;;;;;;;1.80;1.20;;;;;;;-145.01;100.00;64805.59;5054045;28;20060;-56
2022/09/27 10:15:17;;;;;;;1.63;1.20;;;;;;;-145.01;100.00;64805.59;5054894;28;20514;-56
2022/09/27 10:17:45;;;;;;;2.25;1.50;;;;;;;-145.01;100.00;64805.59;5041330;28;20486;-56
2022/09/27 10:21:06;;;;;;;1.95;1.38;;;;;;;-145.01;100.00;64805.59;5056402;28;20032;-56
2022/09/27 10:23:32;;;;;;;3.17;1.48;;;;;;;-145.01;100.00;64805.59;5050186;28;20151;-56
2022/09/27 10:26:02;;;;;;;2.97;1.67;;;;;;;-145.01;100.00;64805.59;5055785;28;20032;-53
2022/09/27 10:28:33;;;;;;;2.78;1.50;;;;;;;-145.01;100.00;64805.59;5048812;28;20033;-56
2022/09/27 10:31:05;;;;;;;2.80;1.40;;;;;;;-145.01;100.00;64805.59;5049649;28;20037;-55
2022/09/27 10:33:31;;;;;;;1.98;1.40;;;;;;;-145.01;100.00;64805.59;5070011;28;20029;-55
2022/09/27 10:35:57;;;;;;;2.45;1.40;;;;;;;-145.01;100.00;64805.59;5053569;28;20039;-54
2022/09/27 10:38:35;;;;;;;5.65;1.55;;;;;;;-145.01;100.00;64805.59;5052422;28;20031;-55
2022/09/27 10:41:16;;;;;;;2.15;1.38;;;;;;;-145.01;100.00;64805.59;5049572;28;20108;-53
2022/09/27 10:43:42;;;;;;;2.67;1.58;;;;;;;-145.01;100.00;64805.59;5049708;28;20033;-55
2022/09/27 10:46:07;;;;;;;2.63;1.50;;;;;;;-145.01;100.00;64805.59;5049146;28;20029;-55
2022/09/27 10:48:33;;;;;;;1.88;1.30;;;;;;;-145.01;100.00;64805.59;5050692;28;20691;-53
2022/09/27 10:51:04;;;;;;;2.33;1.30;;;;;;;-145.01;100.00;64805.59;5048545;28;20040;-55
2022/09/27 10:53:30;;;;;;;3.95;1.70;;;;;;;-145.01;100.00;64805.59;5052676;28;20035;-55
2022/09/27 10:55:55;;;;;;;2.38;1.60;;;;;;;-145.01;100.00;64805.59;5057133;28;20029;-56
2022/09/27 10:58:32;;;;;;;2.88;1.50;;;;;;;-145.01;100.00;64805.59;5059164;28;20032;-55
2022/09/27 11:01:08;;;;;;;3.92;1.55;;;;;;;-145.01;100.00;64805.59;5062955;28;20021;-54
2022/09/27 11:03:44;;;;;;;1.90;1.45;;;;;;;-145.01;100.00;64805.59;5049430;28;20472;-54
2022/09/27 11:06:23;;;;;;;2.35;1.50;;;;;;;-145.01;100.00;64805.59;5048058;28;20191;-55
2022/09/27 11:08:50;;;;;;;2.90;1.55;;;;;;;-145.01;100.00;64805.59;5048330;28;20052;-55
2022/09/27 11:11:23;;;;;;;2.95;1.40;;;;;;;-145.01;100.00;64805.59;5049057;28;20033;-54
2022/09/27 11:14:04;;;;;;;2.08;1.40;;;;;;;-145.01;100.00;64805.59;5060628;28;20021;-55
2022/09/27 11:16:46;;;;;;;2.92;1.55;;;;;;;-145.01;100.00;64805.59;5054285;28;20025;-53
2022/09/27 11:19:30;;;;;;;3.78;1.50;;;;;;;-145.01;100.00;64805.59;5052462;28;20430;-54
2022/09/27 11:22:23;;;;;;;1.52;1.30;;;;;;;-145.01;100.00;64805.59;5053219;28;20499;-54
2022/09/27 11:25:13;;;;;;;2.25;1.60;;;;;;;-145.01;100.00;64805.59;5053610;28;20043;-55
2022/09/27 11:27:59;;;;;;;2.72;1.40;;;;;;;-145.01;100.00;64805.59;5053835;28;20102;-55